Beauceville, Canada
Current Conditions -  °F | °C
As of 12:00 AM on Monday 20 Oct 2014 (Local Time) from CYQB Reporting Station
Broken Clouds Broken Clouds  
Wind Chill: 31°   Ceiling: 3200
Heat Index: 36°   Visibility: 15mi
Dew Point: 27°   Wind: 6mph
Humidity: 70%   Direction: 300°WNW
Pressure: 29.85"   Gusts: NA
Location:  46.21°N, 70.77°W
Report Text: CYQB 200400Z 30005KT 230V320 15SM BKN032 BKN074 02/M03 A2985 RMK SC5AC1 SLP112
Loading
Personal Weather Stations






























Interactive Weather Map
Tropical Storm Tracking
New forecast layout! Learn more

10-Day Weather Forecast

Advertisements
Track Severe Weather on mobile